»·PEaware :: NWA781 KLAS-KFAT

NWA781 :: KLAS-KFAT

FLIGHT INFORMATION

Flight Status: Arrived
Operator:
Northwest Airlines
More flights by this operator :: More flights under this callsign
Pilot: Anonymous 14167 (14167)
Aircraft: BOEING 727-100
(B721)
More flights by this aircraft type
Origin: KLAS McCarran Intl
United States
Destination: KFAT Fresno Yosemite Intl
United States
More flights between these airports :: More routes between these airports
Route: +SHEAD1 KENNO BIH FRA
File this flight plan on PilotEdge
Remarks:
Altitude:
(Current/Filed)
28,000ft
Speed:
(Current/Filed)
480kts
Departed: 22-Sep-18 06:41 PM
Arrived: 22-Sep-18 07:34 PM
Distance/Time
Traveled:
224nm/0:53
Distance/Time
To Go:
Arrived

Flight Plot

Page will automatically refresh every two minutes.

Flight plan parsing failed; only flown route is shown


Map Options




Map Legend


Flown Route
Filed Route
Departure Airport
Arrival Airport
Navaid (VOR, NDB)
Fix

Horizontal Profiles

Position Reports

Time Latitude Longitude Heading Altitude Ground
Speed
22-Sep-18 18:22 36.080241 -115.136146 61 2152ft 0kts
22-Sep-18 18:23 36.080241 -115.136146 61 2152ft 0kts
22-Sep-18 18:24 36.080241 -115.136146 61 2152ft 0kts
22-Sep-18 18:25 36.080241 -115.136146 61 2152ft 0kts
22-Sep-18 18:26 36.080241 -115.136146 61 2152ft 0kts
22-Sep-18 18:27 36.080241 -115.136146 61 2152ft 0kts
22-Sep-18 18:28 36.080241 -115.136146 61 2152ft 0kts
22-Sep-18 18:29 36.080159 -115.136335 61 2152ft 2kts
22-Sep-18 18:30 36.079878 -115.136995 83 2152ft 2kts
22-Sep-18 18:31 36.079982 -115.137281 134 2152ft 0kts
22-Sep-18 18:32 36.079982 -115.137281 134 2152ft 0kts
22-Sep-18 18:33 36.079982 -115.137281 134 2152ft 0kts
22-Sep-18 18:34 36.079982 -115.137281 134 2152ft 0kts
22-Sep-18 18:35 36.079618 -115.136818 134 2152ft 6kts
22-Sep-18 18:36 36.078940 -115.135984 135 2152ft 0kts
22-Sep-18 18:37 36.078234 -115.133436 91 2152ft 10kts
22-Sep-18 18:38 36.078254 -115.129741 90 2152ft 12kts
22-Sep-18 18:39 36.078266 -115.125162 89 2152ft 14kts
22-Sep-18 18:40 36.077411 -115.121511 138 2152ft 0kts
22-Sep-18 18:41 36.077411 -115.121511 138 2153ft 0kts
22-Sep-18 18:42 36.077411 -115.121511 138 2153ft 0kts
22-Sep-18 18:43 36.076399 -115.127662 269 2153ft 84kts
22-Sep-18 18:44 36.078979 -115.177832 274 3570ft 183kts
22-Sep-18 18:45 36.075996 -115.247095 246 6516ft 230kts
22-Sep-18 18:46 36.015667 -115.280326 186 7266ft 273kts
22-Sep-18 18:47 35.951319 -115.320323 232 7791ft 268kts
22-Sep-18 18:48 35.900213 -115.389237 226 9078ft 290kts
22-Sep-18 18:49 35.888285 -115.483358 271 10947ft 290kts
22-Sep-18 18:50 35.888845 -115.586467 267 11074ft 314kts
22-Sep-18 18:51 35.887450 -115.693952 267 11589ft 310kts
22-Sep-18 18:52 35.891025 -115.798269 269 14549ft 307kts
22-Sep-18 18:53 35.893943 -115.904079 270 17328ft 316kts
22-Sep-18 18:54 35.926683 -116.002257 311 19640ft 335kts
22-Sep-18 18:55 35.997386 -116.087439 314 20648ft 383kts
22-Sep-18 18:56 36.075540 -116.177942 314 22788ft 390kts
22-Sep-18 18:57 36.155141 -116.269986 313 24566ft 399kts
22-Sep-18 18:58 36.236969 -116.364855 313 26107ft 408kts
22-Sep-18 18:59 36.320169 -116.461595 312 27517ft 416kts
22-Sep-18 19:00 36.406023 -116.561815 312 28021ft 441kts
22-Sep-18 19:01 36.497004 -116.668290 312 28024ft 465kts
22-Sep-18 19:02 36.598385 -116.772868 323 28027ft 490kts
22-Sep-18 19:03 36.716409 -116.863666 324 28023ft 508kts
22-Sep-18 19:04 36.838247 -116.956535 325 28021ft 519kts
22-Sep-18 19:05 36.961554 -117.050865 325 28020ft 524kts
22-Sep-18 19:06 37.085652 -117.146164 325 28055ft 523kts
22-Sep-18 19:07 37.206440 -117.239285 325 28125ft 517kts
22-Sep-18 19:08 37.293150 -117.366925 285 29335ft 449kts
22-Sep-18 19:09 37.313337 -117.513943 274 28164ft 420kts
22-Sep-18 19:10 37.324962 -117.656255 273 26046ft 410kts
22-Sep-18 19:11 37.335840 -117.799769 273 24182ft 427kts
22-Sep-18 19:12 37.346720 -117.946026 272 24048ft 419kts
22-Sep-18 19:13 37.357637 -118.095707 273 24048ft 443kts
22-Sep-18 19:14 37.368921 -118.253032 273 24046ft 462kts
22-Sep-18 19:15 37.364847 -118.414697 256 23960ft 466kts
22-Sep-18 19:16 37.334416 -118.562180 254 23245ft 411kts
22-Sep-18 19:17 37.305114 -118.696861 253 21098ft 407kts
22-Sep-18 19:18 37.275401 -118.832299 253 19816ft 400kts
22-Sep-18 19:19 37.246482 -118.963134 253 19117ft 368kts
22-Sep-18 19:20 37.219219 -119.085791 253 17129ft 364kts
22-Sep-18 19:21 37.193259 -119.202051 253 15640ft 341kts
22-Sep-18 19:22 37.167854 -119.315285 252 13986ft 334kts
22-Sep-18 19:23 37.144423 -119.419230 252 12572ft 298kts
22-Sep-18 19:24 37.081822 -119.471418 193 11154ft 288kts
22-Sep-18 19:25 37.004821 -119.495002 191 9879ft 283kts
22-Sep-18 19:26 36.935057 -119.461548 152 8886ft 256kts
22-Sep-18 19:27 36.874076 -119.419484 152 7630ft 252kts
22-Sep-18 19:28 36.810912 -119.396524 205 6298ft 244kts
22-Sep-18 19:29 36.755719 -119.433596 212 5494ft 220kts
22-Sep-18 19:30 36.705861 -119.474935 234 3935ft 214kts
22-Sep-18 19:31 36.680953 -119.541240 268 2875ft 195kts
22-Sep-18 19:32 36.707553 -119.596260 302 2290ft 167kts
22-Sep-18 19:33 36.731580 -119.637804 305 1636ft 136kts
22-Sep-18 19:34 36.753320 -119.676401 304 884ft 136kts
22-Sep-18 19:35 36.774452 -119.713332 305 346ft 106kts
22-Sep-18 19:36 36.779510 -119.724266 216 346ft 6kts
22-Sep-18 19:37 36.777841 -119.725759 214 346ft 12kts
22-Sep-18 19:38 36.774208 -119.721183 125 346ft 21kts
22-Sep-18 19:39 36.771917 -119.719159 125 346ft 4kts
22-Sep-18 19:40 36.771861 -119.719061 125 346ft 0kts
22-Sep-18 19:41 36.771861 -119.719061 125 346ft 0kts
22-Sep-18 19:42 36.771861 -119.719061 125 346ft 0kts
22-Sep-18 19:43 36.771861 -119.719061 125 346ft 0kts
22-Sep-18 19:44 36.771861 -119.719061 125 346ft 0kts

Navigation Log

Ident Type
Flight plan parsing failed, navigation log unavailable